createdAt,value
2023-04-16T00:01:08.635Z,100246.62
2023-04-16T00:03:36.954Z,100246.56
2023-04-16T00:06:05.240Z,100248.98
2023-04-16T00:08:33.096Z,100253.16
2023-04-16T00:11:00.978Z,100250.06
2023-04-16T00:13:32.276Z,100249.92
2023-04-16T00:15:59.991Z,100251.13
2023-04-16T00:18:27.800Z,100252.48
2023-04-16T00:20:55.808Z,100251.81
2023-04-16T00:23:25.333Z,100249.24
2023-04-16T00:25:53.959Z,100253.17
2023-04-16T00:28:21.701Z,100253.65
2023-04-16T00:30:49.610Z,100254.44
2023-04-16T00:33:17.674Z,100256.02
2023-04-16T00:35:46.476Z,100259.38
2023-04-16T00:38:14.272Z,100258.89
2023-04-16T00:40:42.000Z,100257.51
2023-04-16T00:43:10.157Z,100261.84
2023-04-16T00:45:38.258Z,100258.02
2023-04-16T00:48:06.184Z,100260.26
2023-04-16T00:50:34.711Z,100260.41
2023-04-16T00:53:03.084Z,100256.79
2023-04-16T00:55:33.812Z,100258.52
2023-04-16T00:58:01.629Z,100256.21
2023-04-16T01:00:29.736Z,100257.26
2023-04-16T01:02:57.690Z,100260.84
2023-04-16T01:05:25.932Z,100263.17
2023-04-16T01:07:54.032Z,100265.83
2023-04-16T01:10:22.839Z,100266.25
2023-04-16T01:12:50.660Z,100263.93
2023-04-16T01:15:18.466Z,100262.64
2023-04-16T01:17:46.286Z,100263.57
2023-04-16T01:20:14.591Z,100258.76
2023-04-16T01:22:42.840Z,100262.20
2023-04-16T01:25:16.016Z,100261.08
2023-04-16T01:27:43.918Z,100259.78
2023-04-16T01:30:11.757Z,100263.02
2023-04-16T01:32:50.371Z,100262.64
2023-04-16T01:35:18.476Z,100262.93
2023-04-16T01:37:46.368Z,100265.84
2023-04-16T01:40:14.302Z,100266.89
2023-04-16T01:42:42.090Z,100269.95
2023-04-16T01:45:10.358Z,100267.43
2023-04-16T01:47:40.145Z,100263.89
2023-04-16T01:50:08.094Z,100268.24
2023-04-16T01:52:37.040Z,100269.64
2023-04-16T01:55:05.125Z,100272.80
2023-04-16T01:57:33.639Z,100271.38
2023-04-16T02:00:01.586Z,100272.06
2023-04-16T02:02:30.172Z,100270.79
2023-04-16T02:04:58.058Z,100272.65
2023-04-16T02:07:27.513Z,100268.80
2023-04-16T02:09:55.334Z,100273.30
2023-04-16T02:12:23.458Z,100269.42
2023-04-16T02:14:54.008Z,100266.51
2023-04-16T02:17:23.817Z,100272.98
2023-04-16T02:19:53.791Z,100272.52
2023-04-16T02:22:21.788Z,100275.15
2023-04-16T02:24:50.693Z,100274.96
2023-04-16T02:27:18.696Z,100277.67
2023-04-16T02:29:47.728Z,100274.54
2023-04-16T02:32:16.958Z,100275.16
2023-04-16T02:34:46.146Z,100276.67
2023-04-16T02:37:15.428Z,100277.67
2023-04-16T02:39:44.128Z,100277.34
2023-04-16T02:42:11.915Z,100275.81
2023-04-16T02:44:40.916Z,100277.38
2023-04-16T02:47:08.675Z,100281.41
2023-04-16T02:49:36.677Z,100282.84
2023-04-16T02:52:04.544Z,100287.01
2023-04-16T02:54:32.695Z,100293.21
2023-04-16T02:57:00.566Z,100296.70
2023-04-16T02:59:28.570Z,100296.11
2023-04-16T03:01:56.659Z,100301.03
2023-04-16T03:04:24.686Z,100301.36
2023-04-16T03:06:53.760Z,100304.09
2023-04-16T03:09:21.780Z,100304.42
2023-04-16T03:11:49.856Z,100307.04
2023-04-16T03:14:17.783Z,100307.48
2023-04-16T03:16:45.550Z,100312.84
2023-04-16T03:19:13.574Z,100311.95
2023-04-16T03:21:41.330Z,100318.16
2023-04-16T03:24:09.203Z,100320.59
2023-04-16T03:26:37.013Z,100322.84
2023-04-16T03:29:05.084Z,100326.23
2023-04-16T03:31:33.651Z,100328.96
2023-04-16T03:34:01.675Z,100331.00
2023-04-16T03:36:32.643Z,100329.90
2023-04-16T03:39:00.588Z,100329.66
2023-04-16T03:41:28.682Z,100332.39
2023-04-16T03:43:56.539Z,100336.02
2023-04-16T03:46:24.339Z,100335.30
2023-04-16T03:48:52.568Z,100337.41
2023-04-16T03:51:21.017Z,100338.77
2023-04-16T03:53:48.705Z,100340.36
2023-04-16T03:56:17.032Z,100338.97
2023-04-16T03:58:45.479Z,100339.48
2023-04-16T04:01:13.350Z,100343.11
2023-04-16T04:03:41.561Z,100343.98
2023-04-16T04:06:09.823Z,100347.45
2023-04-16T04:08:38.609Z,100342.20
2023-04-16T04:11:06.456Z,100343.94
2023-04-16T04:13:35.646Z,100344.10
2023-04-16T04:16:05.485Z,100337.96
2023-04-16T04:18:33.457Z,100339.15
2023-04-16T04:21:04.785Z,100335.64
2023-04-16T04:23:33.125Z,100339.06
2023-04-16T04:26:03.848Z,100342.01
2023-04-16T04:28:32.458Z,100339.38
2023-04-16T04:31:00.853Z,100342.57
2023-04-16T04:33:29.983Z,100349.15
2023-04-16T04:35:57.867Z,100349.90
2023-04-16T04:38:26.792Z,100345.58
2023-04-16T04:40:54.622Z,100350.77
2023-04-16T04:43:23.276Z,100350.59
2023-04-16T04:45:51.305Z,100359.17
2023-04-16T04:48:19.749Z,100360.05
2023-04-16T04:50:47.855Z,100360.44
2023-04-16T04:53:16.468Z,100361.52
2023-04-16T04:55:44.396Z,100366.23
2023-04-16T04:58:13.416Z,100367.00
2023-04-16T05:00:42.955Z,100367.38
2023-04-16T05:03:12.723Z,100367.17
2023-04-16T05:05:41.420Z,100370.09
2023-04-16T05:08:09.744Z,100375.66
2023-04-16T05:10:38.215Z,100375.05
2023-04-16T05:13:06.550Z,100379.20
2023-04-16T05:15:34.358Z,100378.34
2023-04-16T05:18:02.420Z,100376.60
2023-04-16T05:20:30.456Z,100380.64
2023-04-16T05:22:58.193Z,100385.73
2023-04-16T05:25:26.201Z,100385.34
2023-04-16T05:27:54.005Z,100386.40
2023-04-16T05:30:21.897Z,100391.20
2023-04-16T05:32:49.727Z,100388.48
2023-04-16T05:35:17.918Z,100388.80
2023-04-16T05:37:45.855Z,100388.98
2023-04-16T05:40:14.173Z,100392.39
2023-04-16T05:42:45.945Z,100391.64
2023-04-16T05:45:13.794Z,100398.23
2023-04-16T05:47:47.422Z,100397.72
2023-04-16T05:50:16.612Z,100399.63
2023-04-16T05:52:45.252Z,100401.86
2023-04-16T05:55:13.460Z,100402.79
2023-04-16T05:57:41.473Z,100403.52
2023-04-16T06:00:10.048Z,100406.04
2023-04-16T06:02:41.076Z,100408.16
2023-04-16T06:05:09.260Z,100409.92
2023-04-16T06:07:37.554Z,100412.88
2023-04-16T06:10:06.337Z,100411.25
2023-04-16T06:12:34.105Z,100414.16
2023-04-16T06:15:02.041Z,100418.04
2023-04-16T06:17:30.234Z,100419.90
2023-04-16T06:19:58.121Z,100419.51
2023-04-16T06:22:25.869Z,100420.73
2023-04-16T06:24:53.584Z,100427.15
2023-04-16T06:27:21.422Z,100425.05
2023-04-16T06:29:49.471Z,100431.86
2023-04-16T06:32:17.530Z,100429.30
2023-04-16T06:34:45.810Z,100432.83
2023-04-16T06:37:13.627Z,100434.93
2023-04-16T06:39:41.517Z,100440.48
2023-04-16T06:42:09.473Z,100439.27
2023-04-16T06:44:37.438Z,100444.48
2023-04-16T06:47:05.534Z,100446.84
2023-04-16T06:49:33.394Z,100440.68
2023-04-16T06:52:01.988Z,100445.17
2023-04-16T06:54:31.079Z,100446.71
2023-04-16T06:56:59.029Z,100446.67
2023-04-16T06:59:26.734Z,100450.29
2023-04-16T07:01:55.105Z,100454.11
2023-04-16T07:04:23.414Z,100455.70
2023-04-16T07:06:51.930Z,100461.48
2023-04-16T07:09:19.664Z,100460.11
2023-04-16T07:11:47.430Z,100462.15
2023-04-16T07:14:15.225Z,100459.87
2023-04-16T07:16:43.076Z,100462.29
2023-04-16T07:19:11.484Z,100469.10
2023-04-16T07:21:39.497Z,100469.09
2023-04-16T07:24:07.282Z,100470.99
2023-04-16T07:26:35.980Z,100471.59
2023-04-16T07:29:03.881Z,100470.11
2023-04-16T07:31:31.756Z,100470.77
2023-04-16T07:33:59.654Z,100468.95
2023-04-16T07:36:28.417Z,100464.39
2023-04-16T07:38:56.300Z,100467.89
2023-04-16T07:41:24.160Z,100467.64
2023-04-16T07:43:52.515Z,100462.62
2023-04-16T07:46:20.383Z,100462.27
2023-04-16T07:48:48.202Z,100461.09
2023-04-16T07:51:15.955Z,100463.05
2023-04-16T07:53:43.897Z,100463.13
2023-04-16T07:56:11.783Z,100464.20
2023-04-16T07:58:39.831Z,100463.61
2023-04-16T08:01:07.561Z,100463.00
2023-04-16T08:03:35.856Z,100466.39
2023-04-16T08:06:03.971Z,100468.29
2023-04-16T08:08:32.744Z,100463.47
2023-04-16T08:11:00.832Z,100469.90
2023-04-16T08:13:30.396Z,100469.34
2023-04-16T08:15:59.421Z,100470.09
2023-04-16T08:18:27.415Z,100470.19
2023-04-16T08:20:55.356Z,100465.59
2023-04-16T08:23:24.261Z,100468.45
2023-04-16T08:25:53.043Z,100466.43
2023-04-16T08:28:21.310Z,100465.52
2023-04-16T08:30:49.143Z,100468.47
2023-04-16T08:33:16.874Z,100464.58
2023-04-16T08:35:44.684Z,100462.73
2023-04-16T08:38:12.559Z,100463.39
2023-04-16T08:40:40.860Z,100465.61
2023-04-16T08:43:12.451Z,100466.83
2023-04-16T08:45:44.917Z,100468.73
2023-04-16T08:48:12.883Z,100471.52
2023-04-16T08:50:40.862Z,100472.83
2023-04-16T08:53:11.185Z,100471.86
2023-04-16T08:55:40.953Z,100470.42
2023-04-16T08:58:15.905Z,100471.80
2023-04-16T09:00:44.200Z,100469.48
2023-04-16T09:03:12.401Z,100471.17
2023-04-16T09:05:40.999Z,100472.38
2023-04-16T09:08:08.928Z,100470.63
2023-04-16T09:10:36.842Z,100469.23
2023-04-16T09:13:05.173Z,100471.09
2023-04-16T09:15:34.975Z,100470.81
2023-04-16T09:18:03.301Z,100467.05
2023-04-16T09:20:31.269Z,100469.44
2023-04-16T09:22:59.296Z,100467.46
2023-04-16T09:25:27.120Z,100470.89
2023-04-16T09:27:54.929Z,100477.30
2023-04-16T09:30:23.386Z,100478.03
2023-04-16T09:32:52.038Z,100484.55
2023-04-16T09:35:20.098Z,100482.02
2023-04-16T09:37:59.004Z,100487.59
2023-04-16T09:40:29.049Z,100493.90
2023-04-16T09:42:58.006Z,100496.38
2023-04-16T09:45:26.280Z,100496.47
2023-04-16T09:47:54.762Z,100499.37
2023-04-16T09:50:22.924Z,100500.86
2023-04-16T09:52:51.780Z,100505.80
2023-04-16T09:55:22.911Z,100507.59
2023-04-16T09:57:58.336Z,100514.70
2023-04-16T10:00:26.264Z,100515.67
2023-04-16T10:03:04.642Z,100511.95
2023-04-16T10:05:33.061Z,100517.30
2023-04-16T10:08:02.157Z,100516.92
2023-04-16T10:10:30.639Z,100518.83
2023-04-16T10:12:58.734Z,100520.13
2023-04-16T10:15:26.753Z,100518.52
2023-04-16T10:17:54.715Z,100522.55
2023-04-16T10:20:22.896Z,100522.88
2023-04-16T10:22:50.795Z,100523.64
2023-04-16T10:25:18.603Z,100525.54
2023-04-16T10:27:46.441Z,100524.82
2023-04-16T10:30:14.344Z,100525.49
2023-04-16T10:32:42.194Z,100524.58
2023-04-16T10:35:10.325Z,100527.45
2023-04-16T10:37:38.173Z,100527.66
2023-04-16T10:40:21.792Z,100524.45
2023-04-16T10:42:56.392Z,100525.39
2023-04-16T10:45:31.827Z,100529.64
2023-04-16T10:47:59.729Z,100528.48
2023-04-16T10:50:34.133Z,100528.80
2023-04-16T10:53:20.928Z,100529.68
2023-04-16T10:55:58.185Z,100530.21
2023-04-16T10:58:29.726Z,100527.19
2023-04-16T11:01:16.852Z,100528.20
2023-04-16T11:03:48.461Z,100530.51
2023-04-16T11:06:19.465Z,100532.81
2023-04-16T11:08:54.496Z,100532.50
2023-04-16T11:11:38.209Z,100534.30
2023-04-16T11:14:06.809Z,100534.73
2023-04-16T11:16:36.937Z,100535.38
2023-04-16T11:19:04.691Z,100539.45
2023-04-16T11:21:32.697Z,100539.66
2023-04-16T11:24:00.590Z,100537.22
2023-04-16T11:26:28.948Z,100539.02
2023-04-16T11:28:57.305Z,100538.46
2023-04-16T11:31:27.343Z,100539.00
2023-04-16T11:33:55.920Z,100539.60
2023-04-16T11:36:26.125Z,100543.80
2023-04-16T11:39:00.943Z,100543.74
2023-04-16T11:41:28.890Z,100547.48
2023-04-16T11:43:56.882Z,100544.67
2023-04-16T11:46:27.652Z,100546.31
2023-04-16T11:48:56.446Z,100542.81
2023-04-16T11:51:24.320Z,100541.40
2023-04-16T11:53:56.201Z,100536.16
2023-04-16T11:56:28.522Z,100535.14
2023-04-16T11:59:07.160Z,100533.73
2023-04-16T12:01:35.594Z,100534.41
2023-04-16T12:04:04.012Z,100535.59
2023-04-16T12:06:33.020Z,100534.66
2023-04-16T12:09:01.497Z,100535.29
2023-04-16T12:11:41.582Z,100539.08
2023-04-16T12:14:12.477Z,100537.11
2023-04-16T12:16:40.522Z,100535.14
2023-04-16T12:19:10.620Z,100538.27
2023-04-16T12:21:42.284Z,100539.19
2023-04-16T12:24:11.378Z,100543.93
2023-04-16T12:26:42.893Z,100541.16
2023-04-16T12:29:28.912Z,100540.10
2023-04-16T12:31:56.908Z,100540.77
2023-04-16T12:34:48.189Z,100540.38
2023-04-16T12:37:15.419Z,100538.61
2023-04-16T12:39:43.677Z,100536.55
2023-04-16T12:42:12.798Z,100537.45
2023-04-16T12:44:40.586Z,100533.67
2023-04-16T12:47:08.471Z,100534.41
2023-04-16T12:49:37.634Z,100532.89
2023-04-16T12:52:06.375Z,100529.45
2023-04-16T12:54:34.260Z,100531.30
2023-04-16T12:57:02.102Z,100532.48
2023-04-16T12:59:30.087Z,100534.81
2023-04-16T13:01:57.940Z,100532.09
2023-04-16T13:04:26.904Z,100531.63
2023-04-16T13:06:54.964Z,100527.40
2023-04-16T13:09:23.480Z,100529.80
2023-04-16T13:11:51.358Z,100532.02
2023-04-16T13:14:20.415Z,100530.73
2023-04-16T13:16:48.267Z,100532.88
2023-04-16T13:19:17.081Z,100533.15
2023-04-16T13:21:44.860Z,100530.73
2023-04-16T13:24:12.644Z,100528.21
2023-04-16T13:26:40.428Z,100533.49
2023-04-16T13:29:08.574Z,100528.22
2023-04-16T13:31:36.905Z,100531.11
2023-04-16T13:34:05.160Z,100532.98
2023-04-16T13:36:34.147Z,100533.54
2023-04-16T13:39:04.797Z,100533.91
2023-04-16T13:41:32.648Z,100528.63
2023-04-16T13:44:00.406Z,100528.40
2023-04-16T13:46:30.261Z,100524.02
2023-04-16T13:48:58.130Z,100524.66
2023-04-16T13:51:27.640Z,100527.27
2023-04-16T13:53:56.280Z,100525.70
2023-04-16T13:56:24.447Z,100525.52
2023-04-16T13:58:52.369Z,100523.08
2023-04-16T14:01:20.772Z,100525.96
2023-04-16T14:03:49.224Z,100527.70
2023-04-16T14:06:18.351Z,100526.63
2023-04-16T14:08:46.379Z,100529.70
2023-04-16T14:11:14.278Z,100528.02
2023-04-16T14:13:42.712Z,100528.69
2023-04-16T14:16:11.015Z,100528.52
2023-04-16T14:18:42.467Z,100529.52
2023-04-16T14:21:10.643Z,100527.20
2023-04-16T14:23:38.577Z,100528.98
2023-04-16T14:26:06.419Z,100527.43
2023-04-16T14:28:35.532Z,100527.61
2023-04-16T14:31:04.362Z,100524.77
2023-04-16T14:33:32.361Z,100524.55
2023-04-16T14:36:02.686Z,100521.59
2023-04-16T14:38:31.377Z,100523.90
2023-04-16T14:41:00.577Z,100523.02
2023-04-16T14:43:28.759Z,100522.73
2023-04-16T14:45:58.627Z,100524.66
2023-04-16T14:48:26.478Z,100524.06
2023-04-16T14:50:54.240Z,100524.81
2023-04-16T14:53:23.000Z,100529.98
2023-04-16T14:55:51.899Z,100531.55
2023-04-16T14:58:20.456Z,100538.16
2023-04-16T15:00:48.170Z,100535.73
2023-04-16T15:03:16.254Z,100535.59
2023-04-16T15:05:44.196Z,100535.79
2023-04-16T15:08:12.863Z,100534.23
2023-04-16T15:10:43.337Z,100534.37
2023-04-16T15:13:12.109Z,100536.08
2023-04-16T15:15:39.948Z,100531.00
2023-04-16T15:18:07.924Z,100530.77
2023-04-16T15:20:35.998Z,100525.44
2023-04-16T15:23:03.827Z,100521.51
2023-04-16T15:25:32.590Z,100526.55
2023-04-16T15:28:02.376Z,100528.66
2023-04-16T15:30:30.524Z,100526.02
2023-04-16T15:32:58.305Z,100524.53
2023-04-16T15:35:26.303Z,100528.04
2023-04-16T15:37:55.259Z,100529.80
2023-04-16T15:40:23.251Z,100530.69
2023-04-16T15:42:51.192Z,100528.05
2023-04-16T15:45:18.989Z,100526.11
2023-04-16T15:47:51.080Z,100526.81
2023-04-16T15:50:19.965Z,100530.33
2023-04-16T15:52:47.711Z,100525.79
2023-04-16T15:55:15.738Z,100531.37
2023-04-16T15:57:43.616Z,100529.36
2023-04-16T16:00:17.141Z,100530.08
2023-04-16T16:02:46.468Z,100528.05
2023-04-16T16:05:14.503Z,100529.52
2023-04-16T16:07:42.972Z,100532.44
2023-04-16T16:10:11.385Z,100536.00
2023-04-16T16:12:40.653Z,100537.91
2023-04-16T16:15:11.168Z,100540.39
2023-04-16T16:17:39.435Z,100539.39
2023-04-16T16:20:10.638Z,100540.81
2023-04-16T16:22:39.283Z,100537.23
2023-04-16T16:25:07.686Z,100540.81
2023-04-16T16:27:36.435Z,100541.55
2023-04-16T16:30:06.650Z,100541.88
2023-04-16T16:32:34.866Z,100540.03
2023-04-16T16:35:02.777Z,100537.25
2023-04-16T16:37:30.847Z,100538.14
2023-04-16T16:39:58.716Z,100535.42
2023-04-16T16:42:26.654Z,100533.78
2023-04-16T16:44:56.675Z,100530.60
2023-04-16T16:47:25.423Z,100530.19
2023-04-16T16:49:54.721Z,100535.10
2023-04-16T16:52:23.702Z,100535.27
2023-04-16T16:54:52.750Z,100537.86
2023-04-16T16:57:20.990Z,100539.03
2023-04-16T16:59:50.427Z,100546.52
2023-04-16T17:02:18.636Z,100548.66
2023-04-16T17:04:46.367Z,100553.44
2023-04-16T17:07:14.617Z,100558.04
2023-04-16T17:09:42.505Z,100560.10
2023-04-16T17:12:11.185Z,100561.83
2023-04-16T17:14:39.483Z,100563.54
2023-04-16T17:17:08.032Z,100566.98
2023-04-16T17:19:35.805Z,100567.98
2023-04-16T17:22:06.488Z,100571.45
2023-04-16T17:24:35.581Z,100574.79
2023-04-16T17:27:04.099Z,100576.01
2023-04-16T17:29:32.796Z,100574.44
2023-04-16T17:32:00.966Z,100575.30
2023-04-16T17:34:29.071Z,100576.54
2023-04-16T17:36:56.898Z,100578.85
2023-04-16T17:39:24.652Z,100583.44
2023-04-16T17:41:54.803Z,100580.64
2023-04-16T17:44:25.646Z,100583.03
2023-04-16T17:46:53.415Z,100586.02
2023-04-16T17:49:21.162Z,100587.95
2023-04-16T17:51:49.201Z,100586.42
2023-04-16T17:54:16.920Z,100588.69
2023-04-16T17:56:46.114Z,100591.48
2023-04-16T17:59:14.158Z,100594.29
2023-04-16T18:01:42.084Z,100600.02
2023-04-16T18:04:10.373Z,100592.10
2023-04-16T18:06:38.596Z,100594.11
2023-04-16T18:09:08.504Z,100594.09
2023-04-16T18:11:37.335Z,100596.20
2023-04-16T18:14:05.468Z,100597.95
2023-04-16T18:16:33.221Z,100601.69
2023-04-16T18:19:01.497Z,100601.45
2023-04-16T18:21:30.507Z,100605.23
2023-04-16T18:23:58.856Z,100607.56
2023-04-16T18:26:29.709Z,100606.48
2023-04-16T18:28:58.216Z,100608.98
2023-04-16T18:31:26.840Z,100611.55
2023-04-16T18:33:58.027Z,100612.18
2023-04-16T18:36:27.080Z,100613.85
2023-04-16T18:41:27.175Z,100606.93
2023-04-16T18:43:54.996Z,100609.48
2023-04-16T18:46:23.070Z,100609.59
2023-04-16T18:48:51.157Z,100610.64
2023-04-16T18:51:18.936Z,100608.89
2023-04-16T18:53:47.181Z,100608.00
2023-04-16T18:56:14.999Z,100607.42
2023-04-16T18:58:43.372Z,100604.61
2023-04-16T19:01:13.566Z,100606.86
2023-04-16T19:03:41.632Z,100602.48
2023-04-16T19:06:09.924Z,100601.41
2023-04-16T19:08:37.696Z,100604.36
2023-04-16T19:11:05.897Z,100603.66
2023-04-16T19:13:33.985Z,100603.65
2023-04-16T19:16:02.515Z,100601.36
2023-04-16T19:18:30.856Z,100603.52
2023-04-16T19:21:01.965Z,100604.77
2023-04-16T19:23:30.005Z,100603.36
2023-04-16T19:25:58.072Z,100600.54
2023-04-16T19:28:26.276Z,100599.32
2023-04-16T19:30:54.265Z,100596.82
2023-04-16T19:33:22.990Z,100593.94
2023-04-16T19:35:51.065Z,100593.42
2023-04-16T19:38:20.080Z,100595.52
2023-04-16T19:40:48.222Z,100598.63
2023-04-16T19:43:16.303Z,100595.86
2023-04-16T19:45:47.574Z,100597.31
2023-04-16T19:48:15.946Z,100593.33
2023-04-16T19:50:43.891Z,100595.05
2023-04-16T19:53:11.814Z,100591.60
2023-04-16T19:55:40.262Z,100590.05
2023-04-16T19:58:08.299Z,100584.95
2023-04-16T20:00:37.247Z,100582.36
2023-04-16T20:03:05.866Z,100585.65
2023-04-16T20:05:34.199Z,100580.89
2023-04-16T20:08:02.202Z,100575.77
2023-04-16T20:10:31.580Z,100572.29
2023-04-16T20:12:59.613Z,100574.42
2023-04-16T20:15:27.449Z,100576.35
2023-04-16T20:17:56.420Z,100576.17
2023-04-16T20:20:24.585Z,100574.34
2023-04-16T20:22:52.802Z,100575.59
2023-04-16T20:25:21.575Z,100575.66
2023-04-16T20:27:49.336Z,100580.09
2023-04-16T20:30:17.243Z,100585.27
2023-04-16T20:32:45.082Z,100583.21
2023-04-16T20:35:13.019Z,100580.13
2023-04-16T20:37:43.193Z,100576.27
2023-04-16T20:40:11.450Z,100576.88
2023-04-16T20:42:41.078Z,100569.35
2023-04-16T20:45:09.751Z,100571.79
2023-04-16T20:47:38.109Z,100567.98
2023-04-16T20:50:06.432Z,100571.83
2023-04-16T20:52:34.952Z,100572.27
2023-04-16T20:55:02.855Z,100573.10
2023-04-16T20:57:32.075Z,100571.52
2023-04-16T20:59:59.975Z,100570.74
2023-04-16T21:02:28.396Z,100573.87
2023-04-16T21:04:56.531Z,100567.02
2023-04-16T21:07:26.054Z,100567.89
2023-04-16T21:09:54.125Z,100567.97
2023-04-16T21:12:23.561Z,100566.70
2023-04-16T21:14:57.278Z,100568.39
2023-04-16T21:17:25.038Z,100571.29
2023-04-16T21:19:53.440Z,100568.02
2023-04-16T21:22:21.212Z,100568.42
2023-04-16T21:24:50.062Z,100564.16
2023-04-16T21:27:18.209Z,100561.46
2023-04-16T21:29:46.024Z,100561.19
2023-04-16T21:32:13.830Z,100559.69
2023-04-16T21:34:41.579Z,100555.58
2023-04-16T21:37:10.381Z,100554.32
2023-04-16T21:39:38.249Z,100547.27
2023-04-16T21:42:06.064Z,100546.11
2023-04-16T21:44:33.917Z,100544.92
2023-04-16T21:47:01.831Z,100547.64
2023-04-16T21:49:30.039Z,100545.88
2023-04-16T21:51:59.199Z,100543.08
2023-04-16T21:54:27.249Z,100540.29
2023-04-16T21:56:55.136Z,100541.55
2023-04-16T21:59:23.302Z,100541.95
2023-04-16T22:01:51.106Z,100538.36
2023-04-16T22:04:19.039Z,100540.65
2023-04-16T22:06:46.945Z,100540.71
2023-04-16T22:09:15.567Z,100537.81
2023-04-16T22:11:46.528Z,100539.23
2023-04-16T22:14:14.619Z,100536.84
2023-04-16T22:16:44.701Z,100537.77
2023-04-16T22:19:14.160Z,100538.52
2023-04-16T22:21:42.592Z,100537.67
2023-04-16T22:24:10.564Z,100538.21
2023-04-16T22:26:38.587Z,100535.95
2023-04-16T22:29:06.732Z,100533.72
2023-04-16T22:31:34.950Z,100531.86
2023-04-16T22:34:03.643Z,100527.85
2023-04-16T22:36:31.902Z,100525.41
2023-04-16T22:38:59.669Z,100523.34
2023-04-16T22:41:28.361Z,100523.56
2023-04-16T22:43:56.566Z,100519.08
2023-04-16T22:46:26.343Z,100516.33
2023-04-16T22:48:54.714Z,100512.73
2023-04-16T22:51:24.464Z,100510.48
2023-04-16T22:53:52.188Z,100507.19
2023-04-16T22:56:20.007Z,100510.54
2023-04-16T22:58:49.408Z,100508.49
2023-04-16T23:01:17.579Z,100507.80
2023-04-16T23:03:45.819Z,100510.52
2023-04-16T23:06:14.132Z,100510.83
2023-04-16T23:08:42.410Z,100510.25
2023-04-16T23:11:10.172Z,100507.25
2023-04-16T23:13:38.322Z,100505.11
2023-04-16T23:16:06.912Z,100501.63
2023-04-16T23:18:34.908Z,100497.95
2023-04-16T23:21:02.775Z,100495.09
2023-04-16T23:23:30.923Z,100494.29
2023-04-16T23:25:58.858Z,100489.20
2023-04-16T23:28:27.206Z,100486.85
2023-04-16T23:30:55.359Z,100481.74
2023-04-16T23:33:23.355Z,100484.23
2023-04-16T23:35:51.186Z,100481.48
2023-04-16T23:38:19.585Z,100480.30
2023-04-16T23:40:47.509Z,100479.63
2023-04-16T23:43:15.443Z,100481.95
2023-04-16T23:45:43.298Z,100479.34
2023-04-16T23:48:11.393Z,100478.13
2023-04-16T23:50:39.175Z,100478.83
2023-04-16T23:53:07.033Z,100476.91
2023-04-16T23:55:34.765Z,100475.36
2023-04-16T23:58:02.686Z,100474.82
